Time;durP1;ratioP1;P1;durP2;ratioP2;P2;SDS_P1;SDS_P2;PMS_P1;PMS_P2;Temp;Humidity;BMP_temperature;BMP_pressure;BME280_temperature;BME280_humidity;BME280_pressure;Samples;Min_cycle;Max_cycle;Signal;HPM_P1;HPM_P2
2023/06/11 00:01:40;;;;;;;11.57;7.47;;;19.50;99.90;;;-144.05;53.95;56827.59;5056118;28;20052;-81
2023/06/11 00:04:06;;;;;;;8.45;6.90;;;19.50;99.90;;;-144.05;54.09;56825.47;5055509;28;20056;-78
2023/06/11 00:06:32;;;;;;;8.43;7.15;;;19.40;99.90;;;-144.05;54.27;56840.34;5055438;28;20061;-79
2023/06/11 00:08:58;;;;;;;14.88;8.32;;;19.40;99.90;;;-144.05;54.73;56838.22;5037716;28;20108;-80
2023/06/11 00:11:25;;;;;;;11.70;8.18;;;19.30;99.90;;;-144.05;55.05;56840.34;5055589;28;20024;-79
2023/06/11 00:13:53;;;;;;;7.97;6.95;;;19.30;99.90;;;-144.05;55.23;56838.22;5055187;28;20036;-80
2023/06/11 00:16:18;;;;;;;8.77;7.70;;;19.30;99.90;;;-144.05;55.31;56850.97;5055995;28;20211;-80
2023/06/11 00:18:45;;;;;;;9.32;7.60;;;19.30;99.90;;;-144.05;55.25;56808.47;5037277;28;20478;-80
2023/06/11 00:21:14;;;;;;;10.68;6.95;;;19.30;99.90;;;-144.05;55.19;56850.97;5037063;28;20096;-80
2023/06/11 00:23:39;;;;;;;9.98;8.20;;;19.20;99.90;;;-144.05;55.70;56831.84;5055230;28;20080;-79
2023/06/11 00:26:08;;;;;;;9.05;7.93;;;19.10;99.90;;;-144.05;55.99;56816.97;5055154;28;20513;-80
2023/06/11 00:28:34;;;;;;;11.07;7.78;;;19.00;99.90;;;-144.05;56.35;56838.22;5054977;28;20032;-81
2023/06/11 00:31:03;;;;;;;9.50;7.47;;;19.00;99.90;;;-144.05;56.39;56848.84;5037178;28;20406;-80
2023/06/11 00:33:29;;;;;;;10.30;7.95;;;18.90;99.90;;;-144.05;56.45;56827.59;5055086;28;20474;-82
2023/06/11 00:35:55;;;;;;;9.95;7.65;;;18.90;99.90;;;-144.05;56.35;56810.59;5055100;28;20033;-78
2023/06/11 00:38:22;;;;;;;11.18;7.93;;;18.90;99.90;;;-144.05;56.45;56827.59;5037111;28;20025;-80
2023/06/11 00:40:48;;;;;;;9.50;7.90;;;18.80;99.90;;;-144.05;56.81;56793.63;5037497;28;20079;-81
2023/06/11 00:43:17;;;;;;;10.32;8.20;;;18.80;99.90;;;-144.05;57.22;56838.22;5037276;28;20482;-80
2023/06/11 00:45:44;;;;;;;10.63;8.95;;;18.80;99.90;;;-144.05;57.23;56831.84;5055389;28;20033;-78
2023/06/11 00:48:10;;;;;;;8.38;7.07;;;18.70;99.90;;;-144.05;57.20;56853.09;5054590;28;20083;-80
2023/06/11 00:50:45;;;;;;;12.40;8.73;;;18.70;99.90;;;-144.05;57.39;56831.84;5037242;28;20029;-82
2023/06/11 00:53:14;;;;;;;11.02;7.70;;;18.70;99.90;;;-144.05;57.19;56831.84;5054948;28;20036;-82
2023/06/11 00:55:40;;;;;;;9.30;8.40;;;18.70;99.90;;;-144.05;57.66;56812.72;5054733;28;20021;-80
2023/06/11 00:58:13;;;;;;;12.15;7.57;;;18.70;99.90;;;-144.05;57.70;56838.22;5054688;28;20025;-82
2023/06/11 01:00:57;;;;;;;7.57;6.72;;;18.60;99.90;;;-144.05;57.35;56833.97;5036544;28;20021;-81
2023/06/11 01:03:27;;;;;;;8.45;7.43;;;18.60;99.90;;;-144.05;57.51;56831.84;5054872;28;20064;-81
2023/06/11 01:06:17;;;;;;;9.52;7.93;;;18.50;99.90;;;-144.05;57.87;56831.84;5036037;28;20025;-80
2023/06/11 01:08:52;;;;;;;13.70;8.00;;;18.40;99.90;;;-144.05;57.93;56840.34;5036758;28;20536;-81
2023/06/11 01:11:22;;;;;;;8.93;7.57;;;18.30;99.90;;;-144.05;58.33;56816.97;5054597;28;20036;-82
2023/06/11 01:13:49;;;;;;;9.20;8.20;;;18.20;99.90;;;-144.05;58.61;56825.47;5054692;28;20440;-80
2023/06/11 01:16:48;;;;;;;10.73;8.18;;;18.20;99.90;;;-144.05;58.81;56814.84;5054601;28;20040;-81
2023/06/11 01:19:37;;;;;;;12.07;8.43;;;18.20;99.90;;;-144.05;59.27;56831.84;5030851;28;20029;-78
2023/06/11 01:22:30;;;;;;;11.18;8.48;;;18.20;99.90;;;-144.05;59.19;56840.34;5041271;28;20036;-80
2023/06/11 01:25:46;;;;;;;10.60;8.30;;;18.30;99.90;;;-144.05;58.79;56799.97;5054308;28;20039;-80
2023/06/11 01:28:22;;;;;;;14.80;8.73;;;18.30;99.90;;;-144.05;58.71;56816.97;5054130;28;20033;-80
2023/06/11 01:30:57;;;;;;;12.52;8.25;;;18.30;99.90;;;-144.05;58.97;56816.97;5054448;28;20032;-81
2023/06/11 01:33:24;;;;;;;;;;;18.30;99.90;;;-144.05;59.18;56814.84;5054950;28;20036;-82
2023/06/11 01:35:57;;;;;;;16.17;8.85;;;18.30;99.90;;;-144.05;59.30;56838.22;5036770;28;19909;-79
2023/06/11 01:38:25;;;;;;;11.45;9.57;;;18.20;99.90;;;-144.05;59.79;56844.59;5036460;28;20036;-80
2023/06/11 01:40:55;;;;;;;11.02;9.40;;;18.20;99.90;;;-144.05;59.77;56819.09;5054285;28;20029;-80
2023/06/11 01:43:23;;;;;;;12.02;8.38;;;18.20;99.90;;;-144.05;59.53;56840.34;5054358;28;20154;-79
2023/06/11 01:45:49;;;;;;;14.88;8.43;;;18.20;99.90;;;-144.05;59.62;56829.72;5054972;28;20025;-79
2023/06/11 01:48:15;;;;;;;15.95;8.43;;;18.10;99.90;;;-144.05;59.67;56816.97;5054456;28;20021;-79
2023/06/11 01:50:44;;;;;;;9.63;8.63;;;18.10;99.90;;;-144.05;59.45;56831.84;5037205;28;20025;-79
2023/06/11 01:53:10;;;;;;;9.65;7.93;;;18.10;99.90;;;-144.05;59.43;56808.47;5054562;28;20394;-80
2023/06/11 01:55:36;;;;;;;10.73;7.95;;;18.00;99.90;;;-144.05;59.75;56827.59;5037273;28;20025;-80
2023/06/11 01:58:02;;;;;;;13.68;9.02;;;18.00;99.90;;;-144.05;60.04;56844.59;5054291;28;20104;-80
2023/06/11 02:00:28;;;;;;;11.05;9.50;;;17.90;99.90;;;-144.05;60.26;56789.38;5054201;28;20442;-80
2023/06/11 02:02:54;;;;;;;13.93;8.73;;;17.90;99.90;;;-144.05;59.96;56836.09;5054029;28;20060;-81
2023/06/11 02:05:20;;;;;;;13.15;8.60;;;17.90;99.90;;;-144.05;60.09;56812.72;5035887;28;20061;-82
2023/06/11 02:07:46;;;;;;;13.02;8.70;;;17.80;99.90;;;-144.05;60.63;56804.22;5053584;28;20457;-81
2023/06/11 02:10:12;;;;;;;13.48;8.85;;;17.80;99.90;;;-144.05;60.53;56850.97;5035962;28;20035;-80
2023/06/11 02:12:38;;;;;;;10.30;8.40;;;17.70;99.90;;;-144.05;60.67;56833.97;5053361;28;20033;-81
2023/06/11 02:15:06;;;;;;;10.88;8.85;;;17.60;99.90;;;-144.05;60.58;56853.09;5052713;28;20025;-80
2023/06/11 02:17:32;;;;;;;11.52;8.75;;;17.60;99.90;;;-144.05;60.72;56831.84;5052318;28;20033;-78
2023/06/11 02:19:58;;;;;;;11.05;8.15;;;17.60;99.90;;;-144.05;60.69;56808.47;5052638;28;20025;-80
2023/06/11 02:22:24;;;;;;;10.20;8.10;;;17.60;99.90;;;-144.05;60.85;56799.97;5052420;28;20441;-78
2023/06/11 02:24:49;;;;;;;10.68;8.13;;;17.50;99.90;;;-144.05;61.30;56844.59;5051671;28;20075;-80
2023/06/11 02:27:15;;;;;;;9.50;8.07;;;17.40;99.90;;;-144.05;61.55;56823.34;5051615;28;20394;-79
2023/06/11 02:29:41;;;;;;;10.52;8.10;;;17.30;99.90;;;-144.05;61.87;56821.22;5051198;28;20037;-79
2023/06/11 02:32:08;;;;;;;11.70;9.05;;;17.30;99.90;;;-144.05;62.02;56806.34;5033719;28;20114;-79
2023/06/11 02:34:34;;;;;;;11.23;9.52;;;17.30;99.90;;;-144.05;62.24;56825.47;5051672;28;20031;-78
2023/06/11 02:37:00;;;;;;;11.23;9.27;;;17.30;99.90;;;-144.05;62.24;56836.09;5051649;28;20021;-80
2023/06/11 02:39:25;;;;;;;12.88;9.20;;;17.30;99.90;;;-144.05;61.95;56806.34;5033627;28;20323;-80
2023/06/11 02:41:51;;;;;;;12.65;9.60;;;17.30;99.90;;;-144.05;61.92;56806.34;5052353;28;20064;-78
2023/06/11 02:44:17;;;;;;;13.15;9.02;;;17.30;99.90;;;-144.05;62.06;56827.59;5034057;28;20029;-79
2023/06/11 02:46:43;;;;;;;11.13;8.82;;;17.40;99.90;;;-144.05;61.75;56833.97;5051708;28;20459;-79
2023/06/11 02:49:09;;;;;;;12.98;8.95;;;17.40;99.90;;;-144.05;61.86;56827.59;5033910;28;20051;-81
2023/06/11 02:51:34;;;;;;;10.35;8.80;;;17.40;99.90;;;-144.05;61.74;56819.09;5052071;28;20063;-80
2023/06/11 02:54:02;;;;;;;11.93;8.80;;;17.40;99.90;;;-144.05;62.09;56819.09;5051696;28;20029;-80
2023/06/11 02:56:28;;;;;;;12.15;9.50;;;17.30;99.90;;;-144.05;62.40;56825.47;5051914;28;20464;-79
2023/06/11 02:58:54;;;;;;;11.32;9.43;;;17.30;99.90;;;-144.05;62.08;56819.09;5051744;28;20028;-79
2023/06/11 03:01:20;;;;;;;13.43;9.75;;;17.30;99.90;;;-144.05;62.31;56819.09;5051757;28;20029;-80
2023/06/11 03:03:45;;;;;;;14.45;9.70;;;17.30;99.90;;;-144.05;62.60;56831.84;5051713;28;20044;-80
2023/06/11 03:06:11;;;;;;;11.70;8.73;;;17.30;99.90;;;-144.05;62.42;56831.84;5051573;28;20037;-81
2023/06/11 03:08:37;;;;;;;9.80;8.80;;;17.20;99.90;;;-144.05;62.65;56831.84;5033971;28;20116;-80
2023/06/11 03:11:03;;;;;;;11.15;9.50;;;17.20;99.90;;;-144.05;62.92;56799.97;5050001;28;20489;-80
2023/06/11 03:13:29;;;;;;;10.57;9.43;;;17.10;99.90;;;-144.05;63.00;56806.34;5051824;28;20029;-80
2023/06/11 03:15:55;;;;;;;9.77;8.77;;;17.10;99.90;;;-144.05;63.41;56836.09;5051318;28;20527;-81
2023/06/11 03:18:21;;;;;;;9.77;8.77;;;17.00;99.90;;;-144.05;63.56;56810.59;5051659;28;20083;-82
2023/06/11 03:20:47;;;;;;;11.90;9.70;;;17.00;99.90;;;-144.05;63.72;56821.22;5033695;28;20223;-80
2023/06/11 03:23:15;;;;;;;13.02;9.70;;;16.90;99.90;;;-144.05;64.14;56825.47;5051567;28;20021;-80
2023/06/11 03:25:42;;;;;;;11.48;8.23;;;16.90;99.90;;;-144.05;64.36;56831.84;5049799;28;20025;-81
2023/06/11 03:28:08;;;;;;;10.52;9.02;;;16.80;99.90;;;-144.05;64.71;56844.59;5052826;28;20032;-81
2023/06/11 03:30:34;;;;;;;11.30;9.45;;;16.80;99.90;;;-144.05;64.71;56816.97;5055113;28;20075;-80
2023/06/11 03:33:00;;;;;;;10.82;9.43;;;16.70;99.90;;;-144.05;64.83;56823.34;5055770;28;20060;-80
2023/06/11 03:35:26;;;;;;;10.65;9.23;;;16.70;99.90;;;-144.05;64.76;56831.84;5037467;28;20021;-81
2023/06/11 03:37:52;;;;;;;9.48;8.43;;;16.80;99.90;;;-144.05;64.42;56831.84;5037745;28;20029;-78
2023/06/11 03:40:18;;;;;;;9.60;8.40;;;16.90;99.90;;;-144.05;64.40;56812.72;5041462;28;20056;-77
2023/06/11 03:42:44;;;;;;;12.27;9.73;;;16.80;99.90;;;-144.05;64.37;56825.47;5038314;28;20041;-80
2023/06/11 03:45:10;;;;;;;10.95;9.75;;;16.80;99.90;;;-144.05;64.37;56823.34;5055261;28;20032;-79
2023/06/11 03:47:36;;;;;;;15.05;9.25;;;16.90;99.90;;;-144.05;64.09;56825.47;5040377;28;20082;-78
2023/06/11 03:50:04;;;;;;;10.10;8.82;;;16.90;99.90;;;-144.05;64.14;56823.34;5064152;28;20097;-78
2023/06/11 03:52:30;;;;;;;10.95;9.35;;;16.90;99.90;;;-144.05;63.85;56831.84;5050692;28;20036;-79
2023/06/11 03:54:59;;;;;;;13.77;9.10;;;16.90;99.90;;;-144.05;64.11;56829.72;5067750;28;20029;-80
2023/06/11 03:57:25;;;;;;;14.68;9.07;;;16.90;99.90;;;-144.05;64.03;56814.84;5066608;28;20090;-78
2023/06/11 03:59:51;;;;;;;11.05;8.75;;;16.90;99.90;;;-144.05;64.04;56827.59;5064443;28;20427;-79
2023/06/11 04:02:17;;;;;;;10.80;8.70;;;16.90;99.90;;;-144.05;64.29;56823.34;5055097;28;20033;-79
2023/06/11 04:04:42;;;;;;;10.32;9.32;;;16.90;99.90;;;-144.05;64.36;56821.22;5054486;28;20029;-81
2023/06/11 04:07:08;;;;;;;10.93;9.30;;;17.00;99.90;;;-144.05;63.87;56838.22;5054044;28;20057;-79
2023/06/11 04:09:34;;;;;;;11.35;9.07;;;17.00;99.90;;;-144.05;63.89;56833.97;5053907;28;20175;-79
2023/06/11 04:12:00;;;;;;;9.98;8.85;;;17.10;99.90;;;-144.05;63.78;56819.09;5053711;28;20029;-80
2023/06/11 04:14:26;;;;;;;10.82;8.35;;;17.10;99.90;;;-144.05;63.76;56823.34;5036045;28;20029;-81
2023/06/11 04:16:52;;;;;;;8.95;7.90;;;17.10;99.90;;;-144.05;64.07;56831.84;5053958;28;20482;-80
2023/06/11 04:19:18;;;;;;;9.93;8.93;;;17.10;99.90;;;-144.05;64.48;56806.34;5035657;28;20029;-80
2023/06/11 04:21:44;;;;;;;11.95;9.63;;;17.10;99.90;;;-144.05;64.40;56823.34;5053914;28;20028;-80
2023/06/11 04:24:10;;;;;;;12.80;10.18;;;17.10;99.90;;;-144.05;64.44;56808.47;5035847;28;20025;-80
2023/06/11 04:26:36;;;;;;;11.80;9.85;;;17.10;99.90;;;-144.05;64.20;56812.72;5035904;28;20029;-79
2023/06/11 04:29:03;;;;;;;10.85;9.25;;;17.20;99.90;;;-144.05;63.95;56827.59;5035940;28;20040;-81
2023/06/11 04:31:29;;;;;;;10.85;9.75;;;17.20;99.90;;;-144.05;63.74;56806.34;5054037;28;20040;-81
2023/06/11 04:33:56;;;;;;;12.95;11.02;;;17.30;99.90;;;-144.05;63.63;56816.97;5053917;28;20025;-77
2023/06/11 04:36:27;;;;;;;10.43;9.30;;;17.40;99.90;;;-144.05;62.99;56829.72;5037911;28;20186;-79
2023/06/11 04:38:53;;;;;;;14.27;10.13;;;17.50;99.90;;;-144.05;62.47;56840.34;5054912;28;20029;-79
2023/06/11 04:41:22;;;;;;;11.05;9.85;;;17.60;99.90;;;-144.05;61.85;56812.72;5054756;28;20390;-78
2023/06/11 04:43:48;;;;;;;12.52;9.02;;;17.80;99.90;;;-144.05;61.38;56812.72;5036961;28;20160;-79
2023/06/11 04:46:14;;;;;;;14.32;9.77;;;17.90;99.90;;;-144.05;60.44;56814.84;5054869;28;20063;-80
2023/06/11 04:48:40;;;;;;;10.65;8.60;;;18.10;99.90;;;-144.05;60.25;56863.69;5036592;28;20174;-80
2023/06/11 04:51:06;;;;;;;10.40;8.43;;;18.20;99.90;;;-144.05;59.60;56840.34;5054462;28;20092;-80
2023/06/11 04:53:36;;;;;;;11.77;9.20;;;18.40;99.90;;;-144.05;58.95;56819.09;5036487;28;20037;-79
2023/06/11 04:56:04;;;;;;;12.95;9.18;;;18.50;99.90;;;-144.05;58.22;56823.34;5036336;28;20029;-81
2023/06/11 04:58:30;;;;;;;15.23;9.82;;;18.70;99.90;;;-144.05;57.92;56857.34;5054323;28;20048;-81
2023/06/11 05:00:57;;;;;;;11.27;8.10;;;18.80;99.90;;;-144.05;57.61;56840.34;5036358;28;20025;-78
2023/06/11 05:03:26;;;;;;;11.10;7.35;;;18.90;99.90;;;-144.05;57.24;56853.09;5053930;28;20037;-80
2023/06/11 05:05:54;;;;;;;10.02;7.30;;;19.10;99.90;;;-144.05;56.50;56831.84;5035567;28;20044;-79
2023/06/11 05:08:25;;;;;;;8.65;7.75;;;19.30;99.90;;;-144.05;55.62;56857.34;5094884;22;20078;-81
2023/06/11 05:10:59;;;;;;;11.02;7.85;;;19.50;99.90;;;-144.05;54.80;56872.19;5055579;28;20098;-81
2023/06/11 05:13:26;;;;;;;10.95;8.02;;;19.70;99.90;;;-144.05;54.01;56842.47;5055884;28;20056;-83
2023/06/11 05:15:58;;;;;;;8.65;7.25;;;19.90;99.90;;;-144.05;53.33;56859.47;5056169;28;20029;-81
2023/06/11 05:18:29;;;;;;;8.80;6.95;;;20.10;99.90;;;-144.05;52.66;56853.09;5056646;28;20032;-82
2023/06/11 05:20:54;;;;;;;11.23;7.97;;;20.40;99.90;;;-144.05;51.42;56872.19;5058348;28;20025;-79
2023/06/11 05:23:28;;;;;;;8.85;7.78;;;20.60;99.90;;;-144.05;50.72;56861.56;5075424;28;20351;-81
2023/06/11 05:26:08;;;;;;;8.45;7.45;;;20.70;99.90;;;-144.05;50.43;56861.56;5076252;28;20021;-82
2023/06/11 05:28:34;;;;;;;10.15;7.72;;;20.80;99.90;;;-144.05;49.72;56857.34;5074843;28;20029;-83
2023/06/11 05:31:02;;;;;;;8.57;7.40;;;21.00;99.90;;;-144.05;49.52;56853.09;5060470;28;20116;-83
2023/06/11 05:33:30;;;;;;;11.05;7.80;;;21.10;99.90;;;-144.05;48.72;56891.31;5082611;28;20059;-81
2023/06/11 05:35:56;;;;;;;9.70;6.85;;;21.30;99.90;;;-144.05;48.75;56887.06;5094273;28;20028;-83
2023/06/11 05:38:23;;;;;;;8.65;7.40;;;21.30;99.90;;;-144.05;48.52;56867.94;5094301;28;20072;-83
2023/06/11 05:40:50;;;;;;;12.00;7.70;;;21.40;99.90;;;-144.05;48.13;56859.47;5077076;28;20024;-81
2023/06/11 05:43:16;;;;;;;9.45;7.43;;;21.50;99.90;;;-144.05;48.20;56906.19;5095158;28;20116;-80
2023/06/11 05:45:50;;;;;;;11.38;6.82;;;21.70;99.90;;;-144.05;47.58;56904.06;5081859;28;20537;-83
2023/06/11 05:48:16;;;;;;;10.23;7.05;;;22.00;99.90;;;-144.05;47.05;56906.19;5054033;28;20040;-84
2023/06/11 05:50:42;;;;;;;9.23;6.88;;;22.20;99.90;;;-144.05;46.37;56878.56;5072003;28;20054;-82
2023/06/11 05:53:09;;;;;;;8.05;7.15;;;22.20;99.90;;;-144.05;46.31;56897.69;5054567;28;20052;-82
2023/06/11 05:55:37;;;;;;;14.55;7.85;;;22.50;99.90;;;-144.05;45.34;56893.44;5072308;28;20032;-84
2023/06/11 05:58:05;;;;;;;9.63;6.43;;;22.60;99.90;;;-144.05;45.32;56897.69;5072051;28;20430;-83
2023/06/11 06:00:31;;;;;;;10.50;6.85;;;22.70;99.90;;;-144.05;45.40;56929.53;5054452;28;20512;-84
2023/06/11 06:02:57;;;;;;;9.68;6.15;;;23.00;99.90;;;-144.05;45.32;56908.31;5054172;28;20359;-83
2023/06/11 06:05:23;;;;;;;9.20;6.25;;;23.20;99.90;;;-144.05;44.21;56906.19;5072152;28;20024;-83
2023/06/11 06:07:48;;;;;;;11.35;6.70;;;23.40;99.90;;;-144.05;43.34;56935.91;5071877;28;20562;-82
2023/06/11 06:10:14;;;;;;;7.38;6.05;;;23.50;99.90;;;-144.05;43.54;56933.78;5072155;28;20040;-83
2023/06/11 06:12:40;;;;;;;8.88;6.43;;;23.60;99.90;;;-144.05;42.96;56935.91;5054434;28;20039;-82
2023/06/11 06:15:07;;;;;;;8.77;6.43;;;23.80;99.90;;;-144.05;42.67;56923.19;5076991;28;20465;-82
2023/06/11 06:17:33;;;;;;;8.50;6.40;;;24.10;99.90;;;-144.05;41.70;56940.16;5076102;28;20387;-84
2023/06/11 06:19:59;;;;;;;7.57;6.75;;;24.20;99.90;;;-144.05;42.13;56948.66;5076861;28;20062;-83
2023/06/11 06:22:25;;;;;;;9.90;6.47;;;24.40;99.90;;;-144.05;42.48;56957.16;5076841;28;20028;-83
2023/06/11 06:24:51;;;;;;;10.52;6.70;;;24.50;99.90;;;-144.05;41.45;56972.03;5076283;28;20043;-83
2023/06/11 06:27:17;;;;;;;7.18;6.35;;;24.70;99.90;;;-144.05;41.19;56942.28;5076758;28;20033;-83
2023/06/11 06:29:42;;;;;;;8.75;6.85;;;24.90;99.90;;;-144.05;41.00;56935.91;5056322;28;20374;-83
2023/06/11 06:32:09;;;;;;;7.43;6.35;;;24.90;99.90;;;-144.05;40.92;56965.66;5054503;28;20029;-80
2023/06/11 06:34:35;;;;;;;9.15;6.55;;;25.00;99.90;;;-144.05;41.07;56946.53;5072720;28;20452;-82
2023/06/11 06:37:01;;;;;;;8.20;6.47;;;25.30;99.90;;;-144.05;40.93;56974.16;5072432;28;20021;-82
2023/06/11 06:39:28;;;;;;;7.82;6.70;;;25.50;99.90;;;-144.05;40.11;56978.41;5053996;28;20383;-84
2023/06/11 06:41:54;;;;;;;7.95;6.75;;;25.80;99.90;;;-144.05;40.15;56989.00;5053969;28;20032;-81
2023/06/11 06:44:20;;;;;;;9.30;6.10;;;26.00;99.90;;;-144.05;39.05;56999.63;5072515;28;20108;-83
2023/06/11 06:46:46;;;;;;;9.63;6.30;;;26.20;99.90;;;-144.05;38.78;57020.88;5055193;28;20120;-82
2023/06/11 06:49:12;;;;;;;8.77;5.65;;;26.60;99.90;;;-144.05;37.80;57031.50;5056773;28;20119;-80
2023/06/11 06:51:37;;;;;;;7.22;6.10;;;26.70;99.90;;;-144.05;37.11;57031.50;5074921;28;20031;-81
2023/06/11 06:54:04;;;;;;;6.50;5.60;;;26.80;99.90;;;-144.05;37.58;57006.00;5076718;28;20028;-80
2023/06/11 06:56:29;;;;;;;9.23;5.78;;;26.80;99.90;;;-144.05;37.65;57025.13;5056812;28;20036;-83
2023/06/11 06:58:55;;;;;;;6.22;5.63;;;27.00;99.90;;;-144.05;35.94;57044.25;5073186;28;20029;-80
2023/06/11 07:01:21;;;;;;;10.40;5.78;;;27.10;99.80;;;-144.05;35.92;57056.97;5074574;28;20024;-80
2023/06/11 07:03:47;;;;;;;6.72;5.22;;;27.20;99.50;;;-144.05;35.98;57056.97;5075791;28;20546;-81
2023/06/11 07:06:13;;;;;;;9.50;5.18;;;27.40;98.70;;;-144.05;35.48;57048.50;5078872;28;20635;-79
2023/06/11 07:08:39;;;;;;;9.35;5.40;;;27.50;97.60;;;-144.05;35.38;57073.97;5061796;28;20025;-85
2023/06/11 07:11:05;;;;;;;5.40;4.90;;;27.60;96.50;;;-144.05;35.04;57048.50;5081869;28;20359;-83
2023/06/11 07:13:31;;;;;;;8.55;5.60;;;27.70;96.00;;;-144.05;34.24;57042.13;5063622;28;20035;-82
2023/06/11 07:15:57;;;;;;;5.60;5.05;;;28.00;94.90;;;-144.05;32.75;57069.72;5078535;28;20116;-77
2023/06/11 07:18:24;;;;;;;6.80;4.85;;;27.80;91.10;;;-144.05;33.21;57054.88;5078069;28;20029;-81
2023/06/11 07:20:50;;;;;;;5.97;4.88;;;27.70;90.60;;;-144.05;32.96;57044.25;5061444;28;20033;-82
2023/06/11 07:23:16;;;;;;;5.22;4.60;;;27.80;90.20;;;-144.05;32.90;57033.63;5078759;28;20113;-78
2023/06/11 07:25:43;;;;;;;8.00;5.05;;;27.70;89.00;;;-144.05;33.27;57065.47;5078006;28;20139;-81
2023/06/11 07:28:09;;;;;;;7.93;4.20;;;27.60;89.60;;;-144.05;33.25;57073.97;5077850;28;20047;-79
2023/06/11 07:30:35;;;;;;;4.82;4.35;;;27.80;90.00;;;-144.05;32.75;57063.34;5077286;28;20036;-80
2023/06/11 07:33:02;;;;;;;8.02;5.00;;;27.90;87.60;;;-144.05;33.49;57054.88;5078087;28;20055;-80
2023/06/11 07:35:28;;;;;;;8.40;4.38;;;28.10;88.90;;;-144.05;32.09;57052.75;5077797;28;20020;-80
2023/06/11 07:37:54;;;;;;;7.78;4.50;;;28.20;84.40;;;-144.05;32.07;57061.22;5079511;28;20059;-79
2023/06/11 07:40:21;;;;;;;7.53;4.60;;;28.20;83.00;;;-144.05;32.36;57044.25;5081284;28;20032;-78
2023/06/11 07:42:47;;;;;;;5.93;4.85;;;28.10;83.70;;;-144.05;32.21;57056.97;5079940;28;20119;-80
2023/06/11 07:45:15;;;;;;;6.85;5.00;;;28.00;82.00;;;-144.05;31.96;57027.25;5080542;28;20071;-79
2023/06/11 07:47:42;;;;;;;8.55;4.20;;;27.90;81.80;;;-144.05;32.07;57056.97;5079105;28;20036;-79
2023/06/11 07:50:10;;;;;;;7.65;4.88;;;28.00;82.50;;;-144.05;31.72;57076.09;5062365;28;20051;-81
2023/06/11 07:52:36;;;;;;;5.65;4.60;;;28.40;82.40;;;-144.05;31.13;57076.09;5080702;28;20078;-81
2023/06/11 07:55:03;;;;;;;8.48;4.97;;;28.50;79.40;;;-144.05;31.37;57067.59;5080278;28;20119;-83
2023/06/11 07:57:29;;;;;;;7.15;4.50;;;28.50;78.20;;;-144.05;30.92;57086.72;5082203;28;20028;-81
2023/06/11 07:59:56;;;;;;;5.53;4.60;;;28.50;77.50;;;-144.05;31.05;57061.22;5063335;28;20028;-84
2023/06/11 08:02:22;;;;;;;5.47;4.80;;;28.70;77.50;;;-144.05;30.83;57107.97;5080527;28;20374;-83
2023/06/11 08:04:48;;;;;;;4.95;4.28;;;28.70;76.30;;;-144.05;30.64;57101.59;5080459;28;20028;-82
2023/06/11 08:07:14;;;;;;;5.88;4.38;;;28.70;75.30;;;-144.05;30.35;57082.47;5080463;28;20056;-84
2023/06/11 08:09:40;;;;;;;4.47;4.00;;;28.70;73.40;;;-144.05;30.28;57086.72;5080391;28;20036;-82
2023/06/11 08:12:08;;;;;;;5.70;4.40;;;28.70;74.10;;;-144.05;30.31;57105.84;5079732;28;20096;-81
2023/06/11 08:14:35;;;;;;;6.03;4.10;;;29.00;74.10;;;-144.05;29.95;57088.84;5080067;28;20028;-81
2023/06/11 08:17:03;;;;;;;8.80;4.55;;;29.10;73.20;;;-144.05;30.02;57084.59;5079964;28;20024;-82
2023/06/11 08:19:29;;;;;;;5.22;3.97;;;29.10;72.20;;;-144.05;30.22;57148.31;5064154;28;20504;-80
2023/06/11 08:21:55;;;;;;;5.72;4.25;;;29.60;74.00;;;-144.05;29.38;57148.31;5061136;28;20393;-80
2023/06/11 08:24:22;;;;;;;7.68;4.45;;;29.50;71.20;;;-144.05;29.74;57129.22;5079475;28;20028;-82
2023/06/11 08:26:49;;;;;;;7.60;4.25;;;29.30;70.90;;;-144.05;29.54;57133.44;5079857;28;20044;-80
2023/06/11 08:29:15;;;;;;;6.35;4.55;;;29.50;70.30;;;-144.05;28.98;57129.22;5084035;28;20067;-80
2023/06/11 08:31:43;;;;;;;6.95;4.70;;;29.70;68.90;;;-144.05;28.80;57133.44;5079468;28;20031;-83
2023/06/11 08:34:09;;;;;;;5.05;4.10;;;29.70;68.80;;;-144.05;28.22;57158.94;5079319;28;20107;-80
2023/06/11 08:36:36;;;;;;;6.50;4.10;;;29.90;66.60;;;-144.05;28.48;57178.06;5080065;28;20506;-81
2023/06/11 08:39:03;;;;;;;7.22;5.20;;;30.20;67.60;;;-144.05;28.02;57197.19;5080805;28;20032;-80
2023/06/11 08:41:31;;;;;;;5.18;4.28;;;30.40;66.30;;;-144.05;27.83;57182.31;5080126;28;20028;-82
2023/06/11 08:43:58;;;;;;;5.72;4.22;;;30.50;65.00;;;-144.05;28.77;57178.06;5077822;28;20139;-81
2023/06/11 08:46:25;;;;;;;5.57;4.57;;;30.10;66.20;;;-144.05;29.05;57173.81;5059433;28;20115;-81
2023/06/11 08:49:00;;;;;;;4.82;4.00;;;30.20;67.10;;;-144.05;28.04;57212.03;5079523;28;20082;-79
2023/06/11 08:51:33;;;;;;;5.47;4.43;;;30.70;65.30;;;-144.05;27.92;57216.28;5080267;28;20056;-82
2023/06/11 08:53:59;;;;;;;4.43;4.00;;;31.00;65.00;;;-144.05;27.71;57201.44;5061575;28;20070;-81
2023/06/11 08:56:27;;;;;;;6.50;4.75;;;31.20;64.10;;;-144.05;28.02;57197.19;5079510;28;20083;-80
2023/06/11 08:58:55;;;;;;;5.25;4.32;;;30.90;64.40;;;-144.05;28.12;57175.94;5061743;28;20031;-80
2023/06/11 09:01:22;;;;;;;6.53;4.68;;;30.80;63.60;;;-144.05;27.86;57165.31;5079086;28;20031;-82
2023/06/11 09:03:48;;;;;;;4.72;3.67;;;30.60;61.90;;;-144.05;27.89;57178.06;5059959;28;20031;-81
2023/06/11 09:06:14;;;;;;;7.38;4.47;;;30.40;62.50;;;-144.05;27.43;57188.69;5063791;28;20115;-83
2023/06/11 09:08:40;;;;;;;6.03;4.63;;;30.50;62.40;;;-144.05;27.25;57188.69;5081649;28;20485;-84
2023/06/11 09:11:06;;;;;;;5.15;4.00;;;30.50;61.10;;;-144.05;27.20;57169.56;5077804;28;20031;-83
2023/06/11 09:13:32;;;;;;;7.95;4.00;;;30.50;60.50;;;-144.05;26.99;57148.31;5076762;28;20035;-84
2023/06/11 09:15:58;;;;;;;5.15;3.78;;;30.40;60.10;;;-144.05;27.42;57188.69;5078179;28;20025;-84
2023/06/11 09:18:28;;;;;;;6.82;4.43;;;30.50;60.70;;;-144.05;27.25;57203.56;5063171;28;20084;-85
2023/06/11 09:21:00;;;;;;;6.20;4.72;;;30.80;61.40;;;-144.05;26.72;57180.19;5067754;28;20123;-81
2023/06/11 09:23:34;;;;;;;4.78;4.22;;;31.10;59.50;;;-144.05;26.70;57214.16;5078408;28;20032;-82
2023/06/11 09:26:01;;;;;;;5.72;4.15;;;31.20;59.60;;;-144.05;26.56;57218.41;5058934;28;20037;-79
2023/06/11 09:28:35;;;;;;;6.90;4.47;;;31.50;58.70;;;-144.05;27.03;57220.53;5062170;28;20177;-81
2023/06/11 09:31:04;;;;;;;5.78;4.57;;;31.20;59.70;;;-144.05;26.43;57243.91;5060931;28;20123;-81
2023/06/11 09:33:32;;;;;;;5.55;3.58;;;31.30;58.80;;;-144.05;26.63;57235.41;5061616;28;20093;-81
2023/06/11 09:35:59;;;;;;;8.18;4.45;;;31.20;58.70;;;-144.05;26.33;57199.31;5079229;28;20049;-82
2023/06/11 09:38:25;;;;;;;5.57;4.00;;;31.20;57.50;;;-144.05;26.62;57209.91;5062318;28;20025;-82
2023/06/11 09:40:55;;;;;;;5.40;4.10;;;31.20;59.00;;;-144.05;25.66;57252.41;5062179;28;20543;-83
2023/06/11 09:43:24;;;;;;;6.10;4.38;;;31.40;56.50;;;-144.05;25.96;57195.06;5081008;28;20370;-82
2023/06/11 09:45:55;;;;;;;4.15;3.70;;;31.30;56.70;;;-144.05;25.86;57226.91;5080242;28;20020;-82
2023/06/11 09:48:23;;;;;;;5.85;4.53;;;31.30;56.00;;;-144.05;25.98;57214.16;5060895;28;20440;-83
2023/06/11 09:50:52;;;;;;;4.93;4.10;;;31.40;56.60;;;-144.05;26.03;57229.03;5078885;28;20078;-83
2023/06/11 09:53:22;;;;;;;4.90;4.50;;;31.30;56.70;;;-144.05;26.75;57218.41;5059963;28;20464;-81
2023/06/11 09:55:50;;;;;;;6.20;4.80;;;31.10;57.80;;;-144.05;26.22;57239.66;5076900;28;20070;-82
2023/06/11 09:58:23;;;;;;;6.50;4.20;;;31.40;57.00;;;-144.05;25.76;57243.91;5076394;28;20051;-81
2023/06/11 10:01:00;;;;;;;4.80;4.30;;;31.60;55.40;;;-144.05;25.71;57258.78;5060276;28;20028;-83
2023/06/11 10:03:27;;;;;;;6.40;4.80;;;31.90;56.10;;;-144.05;25.31;57254.53;5077934;28;20025;-80
2023/06/11 10:05:54;;;;;;;7.35;4.30;;;31.70;54.70;;;-144.05;25.37;57229.03;5079048;28;20020;-83